createdAt,value
2018-07-09T00:00:01.878Z,4.20
2018-07-09T00:01:01.862Z,4.40
2018-07-09T00:02:01.845Z,4.60
2018-07-09T00:03:02.581Z,4.70
2018-07-09T00:04:01.813Z,4.60
2018-07-09T00:05:01.796Z,4.80
2018-07-09T00:06:01.782Z,4.40
2018-07-09T00:07:01.766Z,4.30
2018-07-09T00:08:01.749Z,4.60
2018-07-09T00:09:01.740Z,4.70
2018-07-09T00:10:01.717Z,4.60
2018-07-09T00:11:01.702Z,4.60
2018-07-09T00:12:01.685Z,4.60
2018-07-09T00:13:01.670Z,4.80
2018-07-09T00:14:01.660Z,4.70
2018-07-09T00:15:01.638Z,4.60
2018-07-09T00:16:01.620Z,4.60
2018-07-09T00:17:01.605Z,4.60
2018-07-09T00:18:01.588Z,4.50
2018-07-09T00:19:01.574Z,4.10
2018-07-09T00:20:01.558Z,4.60
2018-07-09T00:21:01.541Z,4.80
2018-07-09T00:22:01.526Z,4.60
2018-07-09T00:23:01.508Z,4.20
2018-07-09T00:24:01.495Z,4.60
2018-07-09T00:25:01.476Z,4.80
2018-07-09T00:26:01.461Z,4.70
2018-07-09T00:27:01.444Z,4.40
2018-07-09T00:28:01.429Z,4.50
2018-07-09T00:29:01.412Z,4.00
2018-07-09T00:30:01.397Z,4.10
2018-07-09T00:31:01.380Z,4.50
2018-07-09T00:32:01.363Z,4.30
2018-07-09T00:33:01.353Z,4.50
2018-07-09T00:34:01.331Z,4.20
2018-07-09T00:35:03.569Z,4.50
2018-07-09T00:36:01.300Z,4.20
2018-07-09T00:37:01.282Z,4.60
2018-07-09T00:38:01.266Z,4.60
2018-07-09T00:39:01.251Z,4.20
2018-07-09T00:40:01.239Z,4.80
2018-07-09T00:41:01.219Z,4.60
2018-07-09T00:42:01.203Z,4.20
2018-07-09T00:43:01.187Z,4.50
2018-07-09T00:44:01.170Z,4.40
2018-07-09T00:45:01.154Z,4.90
2018-07-09T00:46:01.139Z,4.50
2018-07-09T00:47:01.121Z,4.30
2018-07-09T00:48:01.104Z,4.20
2018-07-09T00:49:01.093Z,4.20
2018-07-09T00:50:01.073Z,4.70
2018-07-09T00:51:01.140Z,4.30
2018-07-09T00:52:01.040Z,4.40
2018-07-09T00:53:01.025Z,4.40
2018-07-09T00:54:01.010Z,4.20
2018-07-09T00:55:00.992Z,3.90
2018-07-09T00:56:01.011Z,4.30
2018-07-09T00:57:00.959Z,4.50
2018-07-09T00:58:00.942Z,4.50
2018-07-09T00:59:00.928Z,4.20
2018-07-09T01:00:00.909Z,4.00
2018-07-09T01:01:00.892Z,4.20
2018-07-09T01:02:00.876Z,4.20
2018-07-09T01:03:00.860Z,4.20
2018-07-09T01:04:00.892Z,4.30
2018-07-09T01:05:00.826Z,4.20
2018-07-09T01:06:00.811Z,4.60
2018-07-09T01:07:00.794Z,4.40
2018-07-09T01:08:00.777Z,3.80
2018-07-09T01:09:00.761Z,4.30
2018-07-09T01:10:00.745Z,4.10
2018-07-09T01:11:00.743Z,4.30
2018-07-09T01:12:00.710Z,4.00
2018-07-09T01:13:02.196Z,4.60
2018-07-09T01:14:00.678Z,4.70
2018-07-09T01:15:00.662Z,4.30
2018-07-09T01:16:00.646Z,4.40
2018-07-09T01:17:00.630Z,4.30
2018-07-09T01:18:00.612Z,4.30
2018-07-09T01:19:00.596Z,4.60
2018-07-09T01:20:00.579Z,4.40
2018-07-09T01:21:00.561Z,4.30
2018-07-09T01:22:00.545Z,4.60
2018-07-09T01:23:00.529Z,4.00
2018-07-09T01:24:00.512Z,4.10
2018-07-09T01:25:00.494Z,4.40
2018-07-09T01:26:00.479Z,4.20
2018-07-09T01:27:00.463Z,4.30
2018-07-09T01:28:00.444Z,4.30
2018-07-09T01:29:00.429Z,4.30
2018-07-09T01:30:00.411Z,4.60
2018-07-09T01:31:00.396Z,4.40
2018-07-09T01:32:00.380Z,4.00
2018-07-09T01:33:00.360Z,4.30
2018-07-09T01:34:00.344Z,3.80
2018-07-09T01:35:01.078Z,4.50
2018-07-09T01:36:00.311Z,4.70
2018-07-09T01:37:00.293Z,4.30
2018-07-09T01:38:00.277Z,4.60
2018-07-09T01:39:00.261Z,4.00
2018-07-09T01:40:00.242Z,4.40
2018-07-09T01:41:00.226Z,3.90
2018-07-09T01:42:00.210Z,4.20
2018-07-09T01:43:00.192Z,4.20
2018-07-09T01:44:00.178Z,3.80
2018-07-09T01:45:00.159Z,4.10
2018-07-09T01:46:00.142Z,3.70
2018-07-09T01:47:00.124Z,4.10
2018-07-09T01:48:00.112Z,4.20
2018-07-09T01:49:00.090Z,3.70
2018-07-09T01:50:00.080Z,3.50
2018-07-09T01:51:00.056Z,3.70
2018-07-09T01:52:00.039Z,3.60
2018-07-09T01:53:00.033Z,3.70
2018-07-09T01:54:00.008Z,3.70
2018-07-09T01:54:59.987Z,3.80
2018-07-09T01:55:59.969Z,3.50
2018-07-09T01:56:59.955Z,3.90
2018-07-09T01:57:59.935Z,3.50
2018-07-09T01:58:59.922Z,3.30
2018-07-09T01:59:59.901Z,3.70
2018-07-09T02:00:59.884Z,3.80
2018-07-09T02:01:59.868Z,3.70
2018-07-09T02:02:59.851Z,3.60
2018-07-09T02:03:59.832Z,3.20
2018-07-09T02:04:59.816Z,3.30
2018-07-09T02:05:59.799Z,3.70
2018-07-09T02:06:59.782Z,3.80
2018-07-09T02:07:59.764Z,3.60
2018-07-09T02:08:59.748Z,3.40
2018-07-09T02:09:59.731Z,3.60
2018-07-09T02:10:59.714Z,3.60
2018-07-09T02:11:59.695Z,3.80
2018-07-09T02:12:59.678Z,3.60
2018-07-09T02:13:59.661Z,3.90
2018-07-09T02:14:59.644Z,3.30
2018-07-09T02:15:59.628Z,3.60
2018-07-09T02:16:59.611Z,3.50
2018-07-09T02:17:59.593Z,3.20
2018-07-09T02:18:59.576Z,3.50
2018-07-09T02:19:59.558Z,3.40
2018-07-09T02:20:59.541Z,3.50
2018-07-09T02:21:59.524Z,3.80
2018-07-09T02:22:59.506Z,3.40
2018-07-09T02:23:59.489Z,3.30
2018-07-09T02:24:59.474Z,3.50
2018-07-09T02:25:59.454Z,3.20
2018-07-09T02:26:59.437Z,3.40
2018-07-09T02:27:59.420Z,3.10
2018-07-09T02:28:59.404Z,3.40
2018-07-09T02:29:59.385Z,3.80
2018-07-09T02:30:59.369Z,3.50
2018-07-09T02:31:59.351Z,3.60
2018-07-09T02:32:59.333Z,3.20
2018-07-09T02:33:59.317Z,3.10
2018-07-09T02:34:59.299Z,3.30
2018-07-09T02:35:59.282Z,3.60
2018-07-09T02:36:59.267Z,3.60
2018-07-09T02:37:59.251Z,3.30
2018-07-09T02:38:59.235Z,3.30
2018-07-09T02:39:59.213Z,3.50
2018-07-09T02:40:59.196Z,3.10
2018-07-09T02:41:59.181Z,3.00
2018-07-09T02:42:59.911Z,3.50
2018-07-09T02:43:59.143Z,3.70
2018-07-09T02:44:59.126Z,3.30
2018-07-09T02:45:59.107Z,3.60
2018-07-09T02:46:59.091Z,3.00
2018-07-09T02:47:59.075Z,3.60
2018-07-09T02:48:59.062Z,3.30
2018-07-09T02:49:59.038Z,3.60
2018-07-09T02:50:59.021Z,3.10
2018-07-09T02:51:59.004Z,2.80
2018-07-09T02:52:58.986Z,3.50
2018-07-09T02:53:58.968Z,3.50
2018-07-09T02:54:58.953Z,3.10
2018-07-09T02:55:58.933Z,3.00
2018-07-09T02:56:58.915Z,3.40
2018-07-09T02:57:58.899Z,3.20
2018-07-09T02:58:58.881Z,3.10
2018-07-09T02:59:58.865Z,3.40
2018-07-09T03:00:58.894Z,3.10
2018-07-09T03:01:58.829Z,3.70
2018-07-09T03:02:58.811Z,3.10
2018-07-09T03:03:58.793Z,3.30
2018-07-09T03:04:58.775Z,3.60
2018-07-09T03:05:58.758Z,3.10
2018-07-09T03:06:58.741Z,3.10
2018-07-09T03:07:58.722Z,3.00
2018-07-09T03:08:58.707Z,3.10
2018-07-09T03:09:58.691Z,3.10
2018-07-09T03:10:58.670Z,3.30
2018-07-09T03:11:58.652Z,3.00
2018-07-09T03:12:58.635Z,3.30
2018-07-09T03:13:58.618Z,3.10
2018-07-09T03:14:58.602Z,3.10
2018-07-09T03:15:58.583Z,2.80
2018-07-09T03:16:58.566Z,3.20
2018-07-09T03:17:58.547Z,3.00
2018-07-09T03:18:58.576Z,2.90
2018-07-09T03:19:58.511Z,3.10
2018-07-09T03:20:58.496Z,3.00
2018-07-09T03:21:58.477Z,3.20
2018-07-09T03:22:58.459Z,2.80
2018-07-09T03:23:58.441Z,3.00
2018-07-09T03:24:58.423Z,2.90
2018-07-09T03:25:58.410Z,3.00
2018-07-09T03:26:58.388Z,3.00
2018-07-09T03:27:58.370Z,3.00
2018-07-09T03:28:58.355Z,3.30
2018-07-09T03:29:58.335Z,3.00
2018-07-09T03:30:58.318Z,2.60
2018-07-09T03:31:58.300Z,3.10
2018-07-09T03:32:58.282Z,3.40
2018-07-09T03:33:58.264Z,3.10
2018-07-09T03:34:58.248Z,2.70
2018-07-09T03:35:58.228Z,2.90
2018-07-09T03:36:58.211Z,2.90
2018-07-09T03:37:58.193Z,2.90
2018-07-09T03:38:58.176Z,3.10
2018-07-09T03:39:58.157Z,3.00
2018-07-09T03:40:58.142Z,2.70
2018-07-09T03:41:58.123Z,3.00
2018-07-09T03:42:58.106Z,3.30
2018-07-09T03:43:58.086Z,2.80
2018-07-09T03:44:58.069Z,2.90
2018-07-09T03:45:58.052Z,2.80
2018-07-09T03:46:58.035Z,2.80
2018-07-09T03:47:58.016Z,2.70
2018-07-09T03:48:57.998Z,2.70
2018-07-09T03:49:57.981Z,2.80
2018-07-09T03:50:57.963Z,3.20
2018-07-09T03:51:57.944Z,3.00
2018-07-09T03:52:57.928Z,2.70
2018-07-09T03:53:57.909Z,2.80
2018-07-09T03:54:57.891Z,2.80
2018-07-09T03:55:57.874Z,2.80
2018-07-09T03:56:57.856Z,2.80
2018-07-09T03:57:57.838Z,2.80
2018-07-09T03:58:57.820Z,2.70
2018-07-09T03:59:57.802Z,2.90
2018-07-09T04:00:57.784Z,2.90
2018-07-09T04:01:57.766Z,2.60
2018-07-09T04:02:57.750Z,2.80
2018-07-09T04:03:57.730Z,2.60
2018-07-09T04:04:57.713Z,2.90
2018-07-09T04:05:57.696Z,3.10
2018-07-09T04:06:57.678Z,2.80
2018-07-09T04:07:57.660Z,2.90
2018-07-09T04:08:57.642Z,2.80
2018-07-09T04:09:57.625Z,3.10
2018-07-09T04:10:57.607Z,3.30
2018-07-09T04:11:57.589Z,3.20
2018-07-09T04:12:57.571Z,3.00
2018-07-09T04:13:57.555Z,3.00
2018-07-09T04:14:57.539Z,3.00
2018-07-09T04:15:57.517Z,3.10
2018-07-09T04:16:57.500Z,3.20
2018-07-09T04:17:57.485Z,3.00
2018-07-09T04:18:57.467Z,3.10
2018-07-09T04:19:57.446Z,3.00
2018-07-09T04:20:57.488Z,3.10
2018-07-09T04:21:57.414Z,3.20
2018-07-09T04:22:58.145Z,3.60
2018-07-09T04:23:57.376Z,3.40
2018-07-09T04:24:57.359Z,3.30
2018-07-09T04:25:57.342Z,2.90
2018-07-09T04:26:57.327Z,2.80
2018-07-09T04:27:57.307Z,3.10
2018-07-09T04:28:57.290Z,2.80
2018-07-09T04:29:57.272Z,2.90
2018-07-09T04:30:57.255Z,2.90
2018-07-09T04:31:57.236Z,2.70
2018-07-09T04:32:57.219Z,2.70
2018-07-09T04:33:57.200Z,3.10
2018-07-09T04:34:57.182Z,3.00
2018-07-09T04:35:57.164Z,2.80
2018-07-09T04:36:57.149Z,3.00
2018-07-09T04:37:57.171Z,3.10
2018-07-09T04:38:57.112Z,3.30
2018-07-09T04:39:57.097Z,3.40
2018-07-09T04:40:57.076Z,3.30
2018-07-09T04:41:57.062Z,2.90
2018-07-09T04:42:57.042Z,2.90
2018-07-09T04:43:57.024Z,3.20
2018-07-09T04:44:57.007Z,2.90
2018-07-09T04:45:56.988Z,3.00
2018-07-09T04:46:56.971Z,3.10
2018-07-09T04:47:56.954Z,3.30
2018-07-09T04:48:56.935Z,3.20
2018-07-09T04:49:56.917Z,3.10
2018-07-09T04:50:56.902Z,3.00
2018-07-09T04:51:56.883Z,3.30
2018-07-09T04:52:56.866Z,2.70
2018-07-09T04:53:56.848Z,3.10
2018-07-09T04:54:56.830Z,3.00
2018-07-09T04:55:56.812Z,2.70
2018-07-09T04:56:56.794Z,3.20
2018-07-09T04:57:56.777Z,2.80
2018-07-09T04:58:56.760Z,3.20
2018-07-09T04:59:56.742Z,3.00
2018-07-09T05:00:56.725Z,2.70
2018-07-09T05:01:56.706Z,2.90
2018-07-09T05:02:56.690Z,2.70
2018-07-09T05:03:56.676Z,3.30
2018-07-09T05:04:56.682Z,3.50
2018-07-09T05:05:56.637Z,3.10
2018-07-09T05:06:56.620Z,3.20
2018-07-09T05:07:56.602Z,3.30
2018-07-09T05:08:56.584Z,2.70
2018-07-09T05:09:56.567Z,2.90
2018-07-09T05:10:56.549Z,3.00
2018-07-09T05:11:56.531Z,3.00
2018-07-09T05:12:56.519Z,3.00
2018-07-09T05:13:56.497Z,2.90
2018-07-09T05:14:56.481Z,3.10
2018-07-09T05:15:56.463Z,3.20
2018-07-09T05:16:56.451Z,3.60
2018-07-09T05:17:56.433Z,3.40
2018-07-09T05:18:56.410Z,3.30
2018-07-09T05:19:57.895Z,3.20
2018-07-09T05:20:56.374Z,3.10
2018-07-09T05:21:56.357Z,4.00
2018-07-09T05:22:56.340Z,3.90
2018-07-09T05:23:56.322Z,3.40
2018-07-09T05:24:56.305Z,3.30
2018-07-09T05:25:56.287Z,2.80
2018-07-09T05:26:56.270Z,2.80
2018-07-09T05:27:56.251Z,2.70
2018-07-09T05:28:56.234Z,3.20
2018-07-09T05:29:56.218Z,2.60
2018-07-09T05:30:56.200Z,3.00
2018-07-09T05:31:56.182Z,2.70
2018-07-09T05:32:56.166Z,2.80
2018-07-09T05:33:56.148Z,2.70
2018-07-09T05:34:56.131Z,2.50
2018-07-09T05:35:56.114Z,2.80
2018-07-09T05:36:56.096Z,2.70
2018-07-09T05:37:56.079Z,2.90
2018-07-09T05:38:56.061Z,2.70
2018-07-09T05:39:56.089Z,2.70
2018-07-09T05:40:56.029Z,2.60
2018-07-09T05:41:56.009Z,3.00
2018-07-09T05:42:55.992Z,3.10
2018-07-09T05:43:55.974Z,2.60
2018-07-09T05:44:55.960Z,2.80
2018-07-09T05:45:55.992Z,3.50
2018-07-09T05:46:55.941Z,3.20
2018-07-09T05:47:55.905Z,2.80
2018-07-09T05:48:55.888Z,2.70
2018-07-09T05:49:55.874Z,2.80
2018-07-09T05:50:55.853Z,2.70
2018-07-09T05:51:55.836Z,2.90
2018-07-09T05:52:55.822Z,2.90
2018-07-09T05:53:55.805Z,2.60
2018-07-09T05:54:55.786Z,2.80
2018-07-09T05:55:55.767Z,2.40
2018-07-09T05:56:55.751Z,2.60
2018-07-09T05:57:55.733Z,2.20
2018-07-09T05:58:55.731Z,2.70
2018-07-09T05:59:55.699Z,2.80
2018-07-09T06:00:55.683Z,2.50
2018-07-09T06:01:55.665Z,2.80
2018-07-09T06:02:59.402Z,3.00
2018-07-09T06:03:55.632Z,2.70
2018-07-09T06:04:55.614Z,2.40
2018-07-09T06:05:55.597Z,2.60
2018-07-09T06:06:55.581Z,3.10
2018-07-09T06:07:55.563Z,2.70
2018-07-09T06:08:56.297Z,2.60
2018-07-09T06:09:55.528Z,2.80
2018-07-09T06:10:55.517Z,2.30
2018-07-09T06:11:55.496Z,3.00
2018-07-09T06:12:55.477Z,2.50
2018-07-09T06:13:55.460Z,2.70
2018-07-09T06:14:55.443Z,2.80
2018-07-09T06:15:55.429Z,3.00
2018-07-09T06:16:55.409Z,3.00
2018-07-09T06:17:55.393Z,2.60
2018-07-09T06:18:55.377Z,2.60
2018-07-09T06:19:56.109Z,2.90
2018-07-09T06:20:55.342Z,3.00
2018-07-09T06:21:55.328Z,2.70
2018-07-09T06:22:55.309Z,2.80
2018-07-09T06:23:55.291Z,2.70
2018-07-09T06:24:55.275Z,2.50
2018-07-09T06:25:55.259Z,2.70
2018-07-09T06:26:55.243Z,2.70
2018-07-09T06:27:55.224Z,2.80
2018-07-09T06:28:55.209Z,2.90
2018-07-09T06:29:55.192Z,2.60
2018-07-09T06:30:55.174Z,2.60
2018-07-09T06:31:55.157Z,2.80
2018-07-09T06:32:55.141Z,2.80
2018-07-09T06:33:55.125Z,2.70
2018-07-09T06:34:55.108Z,3.10
2018-07-09T06:35:55.090Z,2.80
2018-07-09T06:36:55.075Z,2.80
2018-07-09T06:37:55.058Z,3.10
2018-07-09T06:38:55.046Z,3.20
2018-07-09T06:39:55.023Z,3.10
2018-07-09T06:40:55.007Z,2.60
2018-07-09T06:41:54.991Z,2.80
2018-07-09T06:42:54.976Z,2.60
2018-07-09T06:43:54.958Z,2.90
2018-07-09T06:44:54.941Z,2.70
2018-07-09T06:45:54.926Z,3.00
2018-07-09T06:46:54.912Z,3.10
2018-07-09T06:47:54.890Z,3.20
2018-07-09T06:48:54.874Z,3.40
2018-07-09T06:49:54.861Z,3.10
2018-07-09T06:50:54.842Z,2.90
2018-07-09T06:51:55.576Z,2.60
2018-07-09T06:52:54.807Z,2.90
2018-07-09T06:53:54.795Z,2.80
2018-07-09T06:54:54.775Z,2.90
2018-07-09T06:55:54.785Z,2.80
2018-07-09T06:56:54.742Z,3.20
2018-07-09T06:57:54.727Z,3.00
2018-07-09T06:58:54.710Z,3.20
2018-07-09T06:59:54.694Z,3.10
2018-07-09T07:00:54.678Z,2.90
2018-07-09T07:01:54.661Z,3.30
2018-07-09T07:02:54.646Z,3.00
2018-07-09T07:03:54.628Z,3.60
2018-07-09T07:04:54.612Z,3.30
2018-07-09T07:05:54.596Z,3.40
2018-07-09T07:06:54.584Z,3.30
2018-07-09T07:07:54.562Z,3.20
2018-07-09T07:08:54.575Z,3.30
2018-07-09T07:09:54.530Z,3.20
2018-07-09T07:10:54.514Z,3.00
2018-07-09T07:11:54.498Z,3.20
2018-07-09T07:12:54.487Z,2.80
2018-07-09T07:13:54.468Z,3.30
2018-07-09T07:14:54.451Z,3.70
2018-07-09T07:15:54.433Z,3.30
2018-07-09T07:16:54.420Z,3.30
2018-07-09T07:17:54.401Z,3.00
2018-07-09T07:18:54.385Z,3.20
2018-07-09T07:19:54.370Z,3.20
2018-07-09T07:20:54.402Z,3.10
2018-07-09T07:21:54.337Z,3.40
2018-07-09T07:22:54.327Z,3.00
2018-07-09T07:23:55.057Z,2.90
2018-07-09T07:24:54.295Z,3.30
2018-07-09T07:25:54.274Z,2.80
2018-07-09T07:26:54.258Z,3.10
2018-07-09T07:27:54.241Z,6.20
2018-07-09T07:28:54.228Z,4.00
2018-07-09T07:29:54.209Z,3.10
2018-07-09T07:30:54.193Z,3.20
2018-07-09T07:31:54.177Z,3.30
2018-07-09T07:32:54.162Z,3.40
2018-07-09T07:33:54.148Z,3.10
2018-07-09T07:34:54.131Z,3.30
2018-07-09T07:35:54.115Z,3.60
2018-07-09T07:36:54.098Z,3.60
2018-07-09T07:37:54.084Z,3.00
2018-07-09T07:38:54.068Z,3.10
2018-07-09T07:39:54.051Z,3.20
2018-07-09T07:40:54.035Z,3.20
2018-07-09T07:41:54.020Z,2.80
2018-07-09T07:42:54.005Z,3.10
2018-07-09T07:43:53.990Z,2.90
2018-07-09T07:44:54.066Z,2.80
2018-07-09T07:45:53.957Z,3.20
2018-07-09T07:46:53.942Z,2.90
2018-07-09T07:47:53.935Z,2.80
2018-07-09T07:48:53.914Z,3.10
2018-07-09T07:49:53.894Z,3.10
2018-07-09T07:50:55.382Z,3.00
2018-07-09T07:51:53.862Z,2.60
2018-07-09T07:52:53.847Z,3.10
2018-07-09T07:53:53.831Z,3.10
2018-07-09T07:54:53.815Z,2.80
2018-07-09T07:55:53.874Z,3.00
2018-07-09T07:56:54.537Z,3.00
2018-07-09T07:57:53.770Z,2.90
2018-07-09T07:58:53.754Z,3.30
2018-07-09T07:59:53.740Z,2.90
2018-07-09T08:00:53.723Z,3.00
2018-07-09T08:01:53.709Z,2.80
2018-07-09T08:02:53.729Z,3.40
2018-07-09T08:03:53.675Z,2.70
2018-07-09T08:04:53.660Z,3.20
2018-07-09T08:05:53.649Z,3.20
2018-07-09T08:06:53.648Z,2.80
2018-07-09T08:07:53.614Z,3.00
2018-07-09T08:08:53.598Z,3.10
2018-07-09T08:09:53.585Z,3.40
2018-07-09T08:10:53.570Z,2.90
2018-07-09T08:11:53.559Z,2.90
2018-07-09T08:13:13.742Z,3.10
2018-07-09T08:13:53.524Z,3.00
2018-07-09T08:14:53.507Z,3.40
2018-07-09T08:15:53.492Z,2.90
2018-07-09T08:16:53.478Z,2.90
2018-07-09T08:17:53.461Z,3.20
2018-07-09T08:18:53.449Z,3.50
2018-07-09T08:19:53.433Z,3.60
2018-07-09T08:20:53.415Z,3.40
2018-07-09T08:21:53.401Z,3.40
2018-07-09T08:22:53.385Z,3.30
2018-07-09T08:23:53.369Z,3.60
2018-07-09T08:24:53.436Z,3.00
2018-07-09T08:25:53.339Z,3.60
2018-07-09T08:26:53.324Z,3.60
2018-07-09T08:27:53.308Z,3.50
2018-07-09T08:28:55.545Z,3.70
2018-07-09T08:29:53.280Z,4.10
2018-07-09T08:30:53.265Z,3.50
2018-07-09T08:31:53.248Z,2.90
2018-07-09T08:32:53.237Z,3.30
2018-07-09T08:33:53.219Z,3.10
2018-07-09T08:34:53.956Z,3.10
2018-07-09T08:35:53.192Z,3.00
2018-07-09T08:36:53.177Z,3.20
2018-07-09T08:37:53.220Z,3.10
2018-07-09T08:38:53.145Z,4.00
2018-07-09T08:39:53.129Z,4.70
2018-07-09T08:40:53.114Z,3.30
2018-07-09T08:41:53.099Z,3.00
2018-07-09T08:42:53.084Z,3.30
2018-07-09T08:43:53.071Z,3.10
2018-07-09T08:44:53.054Z,3.40
2018-07-09T08:45:53.040Z,3.30
2018-07-09T08:46:53.026Z,2.60
2018-07-09T08:47:53.010Z,3.30
2018-07-09T08:48:52.996Z,3.30
2018-07-09T08:49:52.982Z,3.40
2018-07-09T08:50:52.968Z,3.40
2018-07-09T08:51:52.952Z,3.30
2018-07-09T08:52:52.937Z,3.70
2018-07-09T08:53:52.923Z,4.40
2018-07-09T08:54:52.908Z,9.10
2018-07-09T08:55:53.644Z,3.60
2018-07-09T08:56:52.878Z,3.10
2018-07-09T08:57:52.863Z,3.40
2018-07-09T08:58:52.850Z,2.90
2018-07-09T08:59:52.833Z,3.00
2018-07-09T09:00:52.824Z,3.00
2018-07-09T09:01:52.805Z,3.60
2018-07-09T09:02:52.792Z,2.90
2018-07-09T09:03:52.821Z,2.90
2018-07-09T09:04:52.761Z,3.30
2018-07-09T09:05:52.748Z,3.20
2018-07-09T09:06:53.534Z,2.90
2018-07-09T09:07:52.717Z,2.80
2018-07-09T09:08:52.703Z,2.90
2018-07-09T09:09:52.690Z,3.50
2018-07-09T09:10:52.675Z,3.20
2018-07-09T09:11:52.660Z,3.10
2018-07-09T09:12:52.646Z,2.90
2018-07-09T09:13:52.632Z,2.90
2018-07-09T09:14:52.617Z,2.90
2018-07-09T09:15:52.602Z,3.30
2018-07-09T09:16:52.588Z,3.40
2018-07-09T09:17:52.577Z,3.20
2018-07-09T09:18:52.560Z,3.10
2018-07-09T09:19:52.547Z,3.10
2018-07-09T09:20:52.531Z,2.90
2018-07-09T09:21:52.518Z,2.80
2018-07-09T09:22:52.503Z,3.50
2018-07-09T09:23:52.488Z,3.20
2018-07-09T09:24:52.473Z,3.00
2018-07-09T09:25:52.461Z,3.00
2018-07-09T09:26:52.449Z,2.70
2018-07-09T09:27:52.430Z,2.90
2018-07-09T09:28:52.416Z,2.70
2018-07-09T09:29:52.402Z,2.80
2018-07-09T09:30:52.389Z,3.00
2018-07-09T09:31:52.374Z,2.90
2018-07-09T09:32:52.360Z,3.10
2018-07-09T09:33:52.347Z,3.30
2018-07-09T09:34:52.333Z,2.90
2018-07-09T09:35:52.318Z,3.40
2018-07-09T09:36:52.304Z,3.50
2018-07-09T09:37:53.041Z,3.10
2018-07-09T09:38:52.276Z,3.10
2018-07-09T09:39:52.261Z,3.20
2018-07-09T09:40:52.248Z,3.30
2018-07-09T09:41:52.234Z,3.00
2018-07-09T09:42:52.220Z,3.40
2018-07-09T09:43:52.206Z,3.30
2018-07-09T09:44:52.192Z,3.40
2018-07-09T09:45:52.178Z,3.20
2018-07-09T09:46:52.165Z,3.00
2018-07-09T09:47:52.149Z,3.30
2018-07-09T09:48:52.135Z,5.00
2018-07-09T09:49:52.122Z,3.30
2018-07-09T09:50:52.109Z,3.20
2018-07-09T09:51:52.095Z,3.50
2018-07-09T09:52:52.080Z,3.30
2018-07-09T09:53:52.066Z,3.30
2018-07-09T09:54:52.101Z,3.50
2018-07-09T09:55:52.040Z,3.00
2018-07-09T09:56:52.025Z,3.40
2018-07-09T09:57:52.012Z,3.40
2018-07-09T09:58:52.748Z,3.20
2018-07-09T09:59:51.983Z,3.20
2018-07-09T10:00:51.969Z,3.60
2018-07-09T10:01:51.956Z,3.30
2018-07-09T10:02:51.943Z,3.50
2018-07-09T10:03:51.928Z,3.40
2018-07-09T10:04:51.915Z,3.10
2018-07-09T10:05:51.902Z,3.30
2018-07-09T10:06:51.887Z,3.30
2018-07-09T10:07:51.875Z,3.30
2018-07-09T10:08:51.861Z,3.00
2018-07-09T10:09:51.847Z,3.20
2018-07-09T10:10:51.832Z,3.20
2018-07-09T10:11:51.818Z,3.40
2018-07-09T10:12:51.804Z,3.40
2018-07-09T10:13:51.791Z,2.90
2018-07-09T10:14:51.778Z,3.00
2018-07-09T10:15:51.763Z,3.10
2018-07-09T10:16:51.793Z,3.20
2018-07-09T10:17:51.740Z,2.80
2018-07-09T10:18:51.723Z,3.50
2018-07-09T10:19:51.710Z,3.10
2018-07-09T10:20:51.697Z,2.80
2018-07-09T10:21:51.683Z,3.10
2018-07-09T10:22:51.708Z,3.00
2018-07-09T10:23:51.655Z,3.20
2018-07-09T10:24:51.642Z,3.40
2018-07-09T10:25:51.631Z,3.90
2018-07-09T10:26:51.617Z,3.30
2018-07-09T10:27:51.601Z,3.30
2018-07-09T10:28:51.595Z,3.30
2018-07-09T10:29:51.576Z,3.50
2018-07-09T10:30:51.569Z,3.20
2018-07-09T10:31:51.551Z,3.20
2018-07-09T10:32:51.535Z,3.00
2018-07-09T10:33:51.521Z,3.20
2018-07-09T10:34:51.510Z,2.90
2018-07-09T10:35:52.245Z,3.20
2018-07-09T10:36:51.482Z,3.00
2018-07-09T10:37:51.472Z,2.90
2018-07-09T10:38:51.456Z,2.90
2018-07-09T10:39:51.444Z,3.10
2018-07-09T10:40:51.430Z,3.30
2018-07-09T10:41:51.415Z,3.30
2018-07-09T10:42:51.402Z,3.00
2018-07-09T10:43:51.388Z,3.20
2018-07-09T10:44:51.375Z,3.10
2018-07-09T10:45:51.362Z,3.20
2018-07-09T10:46:54.354Z,3.30
2018-07-09T10:47:51.341Z,3.00
2018-07-09T10:48:51.323Z,3.20
2018-07-09T10:49:51.310Z,2.90
2018-07-09T10:50:51.299Z,3.30
2018-07-09T10:51:51.283Z,3.20
2018-07-09T10:52:52.021Z,2.80
2018-07-09T10:53:51.260Z,3.10
2018-07-09T10:54:51.247Z,3.20
2018-07-09T10:55:51.231Z,3.10
2018-07-09T10:56:51.219Z,2.80
2018-07-09T10:57:51.208Z,3.40
2018-07-09T10:58:51.193Z,3.50
2018-07-09T10:59:51.180Z,3.30
2018-07-09T11:00:51.266Z,3.50
2018-07-09T11:01:51.154Z,2.80
2018-07-09T11:02:51.141Z,3.50
2018-07-09T11:03:51.127Z,3.60
2018-07-09T11:04:51.115Z,3.30
2018-07-09T11:05:51.104Z,3.20
2018-07-09T11:06:51.090Z,3.10
2018-07-09T11:07:51.076Z,3.30
2018-07-09T11:08:51.064Z,3.30
2018-07-09T11:09:51.050Z,3.10
2018-07-09T11:10:51.037Z,3.30
2018-07-09T11:11:51.026Z,3.10
2018-07-09T11:12:51.012Z,3.10
2018-07-09T11:13:51.000Z,3.10
2018-07-09T11:14:50.987Z,3.30
2018-07-09T11:15:50.975Z,3.30
2018-07-09T11:16:50.962Z,3.50
2018-07-09T11:17:50.949Z,3.40
2018-07-09T11:18:50.936Z,3.40
2018-07-09T11:19:50.923Z,3.30
2018-07-09T11:20:50.910Z,3.30
2018-07-09T11:21:50.897Z,3.00
2018-07-09T11:22:50.887Z,3.00
2018-07-09T11:23:50.871Z,3.00
2018-07-09T11:24:50.858Z,3.10
2018-07-09T11:25:50.847Z,2.70
2018-07-09T11:26:50.834Z,3.30
2018-07-09T11:27:50.820Z,3.20
2018-07-09T11:28:50.809Z,3.40
2018-07-09T11:29:50.797Z,3.30
2018-07-09T11:30:50.783Z,3.20
2018-07-09T11:31:50.771Z,3.40
2018-07-09T11:32:50.757Z,3.20
2018-07-09T11:33:50.745Z,3.40
2018-07-09T11:34:50.732Z,3.30
2018-07-09T11:35:50.719Z,3.40
2018-07-09T11:36:50.707Z,3.50
2018-07-09T11:37:50.694Z,3.30
2018-07-09T11:38:50.682Z,3.20
2018-07-09T11:39:50.669Z,3.50
2018-07-09T11:40:50.656Z,3.40
2018-07-09T11:41:50.643Z,3.00
2018-07-09T11:42:50.631Z,3.20
2018-07-09T11:43:50.619Z,3.20
2018-07-09T11:44:50.668Z,3.00
2018-07-09T11:45:50.593Z,2.70
2018-07-09T11:46:50.581Z,2.60
2018-07-09T11:47:50.569Z,2.90
2018-07-09T11:48:50.557Z,2.90
2018-07-09T11:49:50.543Z,3.50
2018-07-09T11:50:52.785Z,2.90
2018-07-09T11:51:50.518Z,3.20
2018-07-09T11:52:50.506Z,2.80
2018-07-09T11:53:50.495Z,3.60
2018-07-09T11:54:50.485Z,3.00
2018-07-09T11:55:50.470Z,2.80
2018-07-09T11:56:51.959Z,3.20
2018-07-09T11:57:50.446Z,2.80
2018-07-09T11:58:50.477Z,2.60
2018-07-09T11:59:50.420Z,2.90
2018-07-09T12:00:50.408Z,2.80
2018-07-09T12:01:50.400Z,3.20
2018-07-09T12:02:53.388Z,3.30
2018-07-09T12:03:50.369Z,2.80
2018-07-09T12:04:50.382Z,2.70
2018-07-09T12:05:50.345Z,2.70
2018-07-09T12:06:50.333Z,2.60
2018-07-09T12:07:50.320Z,2.60
2018-07-09T12:08:50.314Z,2.40
2018-07-09T12:09:50.297Z,2.20
2018-07-09T12:10:50.285Z,2.80
2018-07-09T12:11:50.272Z,2.60
2018-07-09T12:12:50.260Z,2.50
2018-07-09T12:13:50.253Z,2.30
2018-07-09T12:14:50.235Z,2.30
2018-07-09T12:15:50.226Z,2.60
2018-07-09T12:16:50.211Z,2.50
2018-07-09T12:17:50.199Z,2.50
2018-07-09T12:18:50.188Z,2.40
2018-07-09T12:19:50.176Z,2.50
2018-07-09T12:20:50.167Z,2.70
2018-07-09T12:21:50.151Z,2.60
2018-07-09T12:22:50.138Z,2.70
2018-07-09T12:23:50.130Z,2.90
2018-07-09T12:24:50.112Z,2.70
2018-07-09T12:25:50.102Z,2.50
2018-07-09T12:26:50.097Z,2.70
2018-07-09T12:27:50.078Z,2.40
2018-07-09T12:28:50.129Z,2.50
2018-07-09T12:29:51.555Z,2.40
2018-07-09T12:30:50.041Z,2.40
2018-07-09T12:31:50.029Z,2.40
2018-07-09T12:32:50.020Z,2.40
2018-07-09T12:33:50.006Z,2.50
2018-07-09T12:34:49.998Z,2.60
2018-07-09T12:35:50.732Z,2.30
2018-07-09T12:36:49.969Z,2.40
2018-07-09T12:37:49.958Z,2.40
2018-07-09T12:38:49.945Z,2.40
2018-07-09T12:39:49.933Z,2.70
2018-07-09T12:40:49.921Z,2.60
2018-07-09T12:41:49.909Z,2.50
2018-07-09T12:42:49.897Z,2.40
2018-07-09T12:43:49.892Z,2.40
2018-07-09T12:44:49.872Z,2.40
2018-07-09T12:45:49.861Z,2.40
2018-07-09T12:46:49.849Z,2.50
2018-07-09T12:47:49.837Z,2.30
2018-07-09T12:48:49.830Z,2.40
2018-07-09T12:49:49.859Z,2.20
2018-07-09T12:50:49.802Z,2.10
2018-07-09T12:51:49.789Z,2.40
2018-07-09T12:52:49.778Z,2.50
2018-07-09T12:53:49.766Z,2.40
2018-07-09T12:54:49.755Z,2.50
2018-07-09T12:55:49.804Z,2.20
2018-07-09T12:56:49.729Z,2.50
2018-07-09T12:57:49.722Z,2.20
2018-07-09T12:58:49.707Z,2.50
2018-07-09T12:59:49.695Z,2.30
2018-07-09T13:00:49.682Z,2.50
2018-07-09T13:01:49.717Z,2.20
2018-07-09T13:02:49.664Z,2.40
2018-07-09T13:03:49.648Z,2.40
2018-07-09T13:04:49.635Z,2.20
2018-07-09T13:05:49.624Z,2.40
2018-07-09T13:06:49.617Z,2.40
2018-07-09T13:07:49.600Z,2.30
2018-07-09T13:08:49.588Z,2.10
2018-07-09T13:09:49.577Z,2.80
2018-07-09T13:10:49.567Z,2.10
2018-07-09T13:11:49.553Z,2.00
2018-07-09T13:12:49.541Z,2.20
2018-07-09T13:13:49.529Z,2.10
2018-07-09T13:14:49.518Z,2.30
2018-07-09T13:15:49.510Z,2.20
2018-07-09T13:16:49.493Z,2.10
2018-07-09T13:17:49.481Z,1.90